Weather at North Michigan Hospitals Inc Heliport

Public forecast

Using degrees Fahrenheit for public forecast. Weather courtesy of forecast.io.

Closest aviation weather report (METAR) to North Michigan Hospitals Inc Heliport

Closest report is Harbor Springs Airport, 5.8 nm (10.7 km) NNE. Retrieved 2021/10/23 04:35 UTC (0 seconds ago):

KMGN 230435Z AUTO 36003KT 10SM OVC035 04/04 A2998 RMK AO2 T00450043

Closest aviation forecast (TAF) to North Michigan Hospitals Inc Heliport

Closest forecast is Pellston Regional Airport of Emmet County Airport, 15.8 nm (29.2 km) NNE. Retrieved 2021-10-23 00:22 UTC (4 hours ago):

TAF KPLN 222320Z 2300/2324 VRB03KT P6SM VCSH SCT025 BKN035 FM231500 30005KT P6SM VCSH BKN035